Flight Track Log - Related Links

Times and Time Zones

All times are in EDT time to prevent confusion due to time zone crossing. See the CTL312 flight status page for this flight to view local times or setup timezone preferences in your user account.

Time Position Orientation Groundspeed Altitude Reporting Facility
EDT Latitude Longitude Course Direction KTS MPH feet Rate Location/Type
Tue 09:43:52 PM 41.5125 -81.6978 309° West 147 169 900  Level Cleveland Center
Tue 09:44:17 PM 41.5228 -81.7147 309° West 149 171 1,100 635 Climbing Cleveland Center
Tue 09:45:17 PM 41.5664 -81.7378 338° Northwest 184 212 1,800 595 Climbing Cleveland Center
Tue 09:46:18 PM 41.5972 -81.7853 311° West 162 186 2,300 516 Climbing Cleveland Center
Tue 09:47:25 PM 41.6175 -81.8442 295° West 165 190 2,900 520 Climbing Cleveland Center
Tue 09:48:25 PM 41.6333 -81.9000 291° West 159 183 3,400 545 Climbing Cleveland Center
Tue 09:49:26 PM 41.6517 -81.9531 295° West 158 182 4,000 298 Climbing Cleveland Center
Tue 09:50:26 PM 41.6697 -82.0147 291° West 164 189 4,000  Level Cleveland Center
Tue 09:51:27 PM 41.6833 -82.0706 288° West 161 185 4,000  Level Cleveland Center
Tue 09:52:28 PM 41.6994 -82.1267 291° West 160 184 4,000  Level Cleveland Center
Tue 09:53:28 PM 41.7111 -82.1825 286° West 162 186 4,000  Level Cleveland Center
Tue 09:54:29 PM 41.7311 -82.2386 296° West 163 188 4,000 47 Level Cleveland Center
Tue 09:55:36 PM 41.7469 -82.3058 288° West 163 188 4,100 47 Climbing Cleveland Center
Tue 09:56:36 PM 41.7647 -82.3619 293° West 162 186 4,100  Level Cleveland Center
Tue 09:57:37 PM 41.7764 -82.4181 286° West 160 184 4,100  Level Cleveland Center
Tue 09:58:37 PM 41.7881 -82.4769 285° West 160 184 4,100  Level Cleveland Center
Tue 09:59:04 PM 41.7917 -82.4992 282° West 159 183 4,100  Level Cleveland Center
Tue 09:59:46 PM 41.8036 -82.5386 292° West 162 186 4,100  Level Cleveland Center
Tue 10:00:53 PM 41.8211 -82.6033 290° West 164 189 4,100  Level Cleveland Center
Tue 10:01:36 PM 41.8331 -82.6453 291° West 163 188 4,100  Level Cleveland Center
Tue 10:02:36 PM 41.8678 -82.6856 319° Northwest 191 220 4,100  Level Cleveland Center
Tue 10:03:31 PM 41.9131 -82.7122 336° Northwest 186 214 4,100  Level Cleveland Center
Tue 10:04:44 PM 41.9664 -82.7531 330° Northwest 183 211 4,100  Level Cleveland Center
Tue 10:05:26 PM 41.9975 -82.7736 334° Northwest 182 209 4,100  Level Cleveland Center
Tue 10:06:33 PM 42.0489 -82.8117 331° Northwest 181 208 4,100  Level Cleveland Center
Tue 10:07:40 PM 42.0961 -82.8414 335° Northwest 181 208 4,100  Level Cleveland Center
Tue 10:08:40 PM 42.1433 -82.8739 333° Northwest 182 209 4,100  Level Cleveland Center
Tue 10:09:41 PM 42.1867 -82.9006 335° Northwest 179 206 4,100  Level Cleveland Center
Tue 10:10:42 PM 42.2319 -82.9333 332° Northwest 179 206 4,100  Level Cleveland Center
Tue 10:11:42 PM 42.2792 -82.9686 331° Northwest 177 204 4,100  Level Cleveland Center
Tue 10:12:43 PM 42.3222 -82.9983 333° Northwest 178 205 4,100  Level Cleveland Center
Tue 10:13:43 PM 42.3653 -83.0281 333° Northwest 178 205 4,100  Level Cleveland Center
Tue 10:14:50 PM 42.4147 -83.0608 334° Northwest 182 209 4,100 -49 Level Cleveland Center
Tue 10:15:45 PM 42.4578 -83.0936 331° Northwest 180 207 4,000 -310 Descending Cleveland Center
Tue 10:16:46 PM 42.4964 -83.1344 322° Northwest 182 209 3,500 -393 Descending Cleveland Center
Tue 10:17:47 PM 42.5331 -83.1839 315° West 178 205 3,200 -209 Descending Cleveland Center
Tue 10:18:41 PM 42.5611 -83.2217 315° West 169 194 3,100 -298 Descending Cleveland Center
Tue 10:19:48 PM 42.5956 -83.2739 312° West 165 190 2,600 -422 Descending Cleveland Center
Tue 10:20:49 PM 42.6256 -83.3206 311° West 158 182 2,200 -344 Descending Cleveland Center
Tue 10:21:50 PM 42.6475 -83.3667 303° West 144 166 1,900 -295 Descending Cleveland Center
Tue 10:23:00 PM 42.6500 -83.4167 304° West  Level FlightAware Approximate
Tue 10:30:00 PM 42.6656 -83.4205 304° West  Level Estimated
Tue 10:31:00 PM 42.6656 -83.4205 304° West  Level Estimated
Tue 10:32:00 PM 42.6656 -83.4205 304° West  Level Estimated

Login

Don't have an account? Register now (free) for customized features, flight alerts, and more!